Time;durP1;ratioP1;P1;durP2;ratioP2;P2;SDS_P1;SDS_P2;PMS_P1;PMS_P2;Temp;Humidity;BMP_temperature;BMP_pressure;BME280_temperature;BME280_humidity;BME280_pressure;Samples;Min_cycle;Max_cycle;Signal;HPM_P1;HPM_P2
2022/10/19 00:00:14;;;;;;;13.43;11.27;;;14.00;99.90;;;;;;4989794;28;20194;-68
2022/10/19 00:02:40;;;;;;;13.53;10.77;;;13.90;99.90;;;;;;4990326;28;20207;-67
2022/10/19 00:05:06;;;;;;;14.27;12.83;;;13.90;99.90;;;;;;4991514;28;20883;-67
2022/10/19 00:07:32;;;;;;;16.83;12.10;;;13.80;99.90;;;;;;4990629;28;20187;-68
2022/10/19 00:09:58;;;;;;;13.27;10.87;;;13.70;99.90;;;;;;4989724;28;20464;-68
2022/10/19 00:12:23;;;;;;;12.30;11.00;;;13.70;99.90;;;;;;4990382;28;20482;-67
2022/10/19 00:14:49;;;;;;;13.23;11.50;;;13.60;99.90;;;;;;4991501;28;20187;-67
2022/10/19 00:17:15;;;;;;;12.40;10.97;;;13.70;99.90;;;;;;4990137;28;20211;-67
2022/10/19 00:19:40;;;;;;;14.60;11.50;;;13.70;99.90;;;;;;4990898;28;20234;-68
2022/10/19 00:22:06;;;;;;;17.20;10.83;;;13.70;99.90;;;;;;4990889;28;20223;-68
2022/10/19 00:24:32;;;;;;;12.43;10.93;;;13.60;99.90;;;;;;4991221;28;20184;-68
2022/10/19 00:26:57;;;;;;;13.90;12.40;;;13.60;99.90;;;;;;4991211;28;20183;-68
2022/10/19 00:29:23;;;;;;;15.70;12.10;;;13.60;99.90;;;;;;4996621;28;20705;-68
2022/10/19 00:31:50;;;;;;;18.50;12.77;;;13.50;99.90;;;;;;4990432;28;20184;-67
2022/10/19 00:34:16;;;;;;;14.67;11.77;;;13.50;99.90;;;;;;4991191;28;20238;-67
2022/10/19 00:36:42;;;;;;;13.67;11.50;;;13.50;99.90;;;;;;4991338;28;20501;-68
2022/10/19 00:39:12;;;;;;;15.07;11.83;;;13.50;99.90;;;;;;4990535;28;20451;-67
2022/10/19 00:41:38;;;;;;;12.63;9.37;;;13.50;99.90;;;;;;4991852;28;20556;-68
2022/10/19 00:44:26;;;;;;;14.33;10.40;;;13.50;99.90;;;;;;4991267;28;20545;-67
2022/10/19 00:46:52;;;;;;;12.87;10.30;;;13.50;99.90;;;;;;4990507;28;20474;-68
2022/10/19 00:49:21;;;;;;;13.97;11.10;;;13.40;99.90;;;;;;4990747;28;20445;-68
2022/10/19 00:51:54;;;;;;;16.93;12.17;;;13.40;99.90;;;;;;4989640;28;20447;-67
2022/10/19 00:54:21;;;;;;;14.73;11.07;;;13.40;99.90;;;;;;4990054;28;20524;-68
2022/10/19 00:56:49;;;;;;;12.83;11.53;;;13.40;99.90;;;;;;4990961;28;21052;-68
2022/10/19 00:59:19;;;;;;;13.50;11.60;;;13.30;99.90;;;;;;4990342;28;20454;-68
2022/10/19 01:01:46;;;;;;;13.17;10.93;;;13.30;99.90;;;;;;4990000;28;20603;-67
2022/10/19 01:04:12;;;;;;;13.27;11.43;;;13.30;99.90;;;;;;4990947;28;20553;-67
2022/10/19 01:06:39;;;;;;;15.03;11.73;;;13.30;99.90;;;;;;4990710;28;20510;-67
2022/10/19 01:09:05;;;;;;;12.43;11.20;;;13.30;99.90;;;;;;4992700;28;20909;-68
2022/10/19 01:11:33;;;;;;;15.70;9.87;;;13.30;99.90;;;;;;4995315;28;20451;-68
2022/10/19 01:14:20;;;;;;;18.53;12.90;;;13.20;99.90;;;;;;5004150;28;20465;-68
2022/10/19 01:17:00;;;;;;;14.60;12.33;;;13.10;99.90;;;;;;4999902;28;20454;-67
2022/10/19 01:20:00;;;;;;;14.47;11.20;;;13.10;99.90;;;;;;4993997;28;20442;-68
2022/10/19 01:22:36;;;;;;;19.33;12.20;;;13.20;99.90;;;;;;4990342;28;20473;-68
2022/10/19 01:25:29;;;;;;;14.07;12.20;;;13.20;99.90;;;;;;4993645;28;20513;-68
2022/10/19 01:28:38;;;;;;;17.60;13.90;;;13.40;99.90;;;;;;4994440;28;20446;-67
2022/10/19 01:31:13;;;;;;;15.60;11.23;;;13.60;99.90;;;;;;4992580;28;20956;-67
2022/10/19 01:33:53;;;;;;;15.30;11.60;;;13.60;99.90;;;;;;4992228;28;21057;-68
2022/10/19 01:36:22;;;;;;;15.53;11.60;;;13.70;99.90;;;;;;4993790;28;20532;-68
2022/10/19 01:38:52;;;;;;;14.90;10.67;;;13.80;99.90;;;;;;4993205;28;20450;-68
2022/10/19 01:41:35;;;;;;;12.33;11.03;;;13.80;99.90;;;;;;4993008;28;20456;-67
2022/10/19 01:44:15;;;;;;;11.33;10.23;;;13.80;99.90;;;;;;4995221;28;20548;-68
2022/10/19 01:46:48;;;;;;;18.23;12.80;;;14.00;99.90;;;;;;4992443;28;20474;-67
2022/10/19 01:49:24;;;;;;;12.97;11.33;;;14.10;99.90;;;;;;4986803;28;20956;-68
2022/10/19 01:51:55;;;;;;;17.30;14.20;;;14.10;99.90;;;;;;4994066;28;20442;-68
2022/10/19 01:54:25;;;;;;;30.97;15.97;;;14.20;99.90;;;;;;4993148;28;20512;-68
2022/10/19 01:56:52;;;;;;;21.70;15.67;;;14.30;99.90;;;;;;4993301;28;20537;-68
2022/10/19 01:59:21;;;;;;;18.17;13.93;;;14.40;99.90;;;;;;4995430;28;20450;-67
2022/10/19 02:01:49;;;;;;;13.30;11.33;;;14.40;99.90;;;;;;4990343;28;20967;-67
2022/10/19 02:04:18;;;;;;;16.60;11.37;;;14.40;99.90;;;;;;4993676;28;22132;-67
2022/10/19 02:06:44;;;;;;;17.37;10.90;;;14.40;99.90;;;;;;4992979;28;20565;-67
2022/10/19 02:09:16;;;;;;;18.40;12.10;;;14.00;99.90;;;;;;4994129;28;20540;-68
2022/10/19 02:11:44;;;;;;;22.80;13.77;;;14.30;99.90;;;;;;4992740;28;20215;-68
2022/10/19 02:14:14;;;;;;;27.03;15.80;;;14.40;99.90;;;;;;4992550;28;20503;-67
2022/10/19 02:16:48;;;;;;;38.90;16.27;;;14.40;99.90;;;;;;4992098;28;20442;-67
2022/10/19 02:19:15;;;;;;;24.23;14.73;;;14.40;99.90;;;;;;4992558;28;20442;-67
2022/10/19 02:21:41;;;;;;;37.03;17.30;;;14.50;99.90;;;;;;4992688;28;20438;-68
2022/10/19 02:24:06;;;;;;;54.03;17.83;;;14.50;99.90;;;;;;4994088;28;20829;-67
2022/10/19 02:26:32;;;;;;;37.33;18.63;;;14.50;99.90;;;;;;4992649;28;20579;-67
2022/10/19 02:28:58;;;;;;;50.83;19.90;;;14.40;99.90;;;;;;4995375;28;20207;-67
2022/10/19 02:31:25;;;;;;;76.43;23.40;;;14.50;99.90;;;;;;4992990;28;20441;-67
2022/10/19 02:33:51;;;;;;;29.67;17.93;;;14.50;99.90;;;;;;4992352;28;20705;-67
2022/10/19 02:36:17;;;;;;;42.53;19.23;;;14.60;99.90;;;;;;4992324;28;20809;-67
2022/10/19 02:38:43;;;;;;;68.97;18.47;;;14.60;99.90;;;;;;4992997;28;20447;-68
2022/10/19 02:41:33;;;;;;;68.97;19.00;;;14.60;99.90;;;;;;4992998;28;20449;-68
2022/10/19 02:44:05;;;;;;;102.53;21.27;;;14.60;99.90;;;;;;4991520;28;20214;-68
2022/10/19 02:46:43;;;;;;;55.57;19.37;;;14.60;99.90;;;;;;4991774;28;20850;-68
2022/10/19 02:49:10;;;;;;;62.97;21.30;;;14.60;99.90;;;;;;4986298;28;20805;-68
2022/10/19 02:51:39;;;;;;;48.03;19.07;;;14.50;99.90;;;;;;4991515;28;21055;-67
2022/10/19 02:54:06;;;;;;;66.00;21.17;;;14.60;99.90;;;;;;4993131;28;20488;-68
2022/10/19 02:56:33;;;;;;;73.67;23.27;;;14.60;99.90;;;;;;5004001;28;20537;-68
2022/10/19 02:58:59;;;;;;;60.77;22.17;;;14.60;99.90;;;;;;5001032;28;20446;-67
2022/10/19 03:01:25;;;;;;;79.00;21.10;;;14.70;99.90;;;;;;5001727;28;20818;-67
2022/10/19 03:03:51;;;;;;;58.87;21.10;;;14.70;99.90;;;;;;4999274;28;20473;-67
2022/10/19 03:06:17;;;;;;;55.03;19.80;;;14.70;99.90;;;;;;4997880;28;20207;-67
2022/10/19 03:08:43;;;;;;;43.87;19.27;;;14.60;99.90;;;;;;5000206;28;20184;-68
2022/10/19 03:11:08;;;;;;;45.60;25.07;;;14.50;99.90;;;;;;5004266;28;20468;-67
2022/10/19 03:13:34;;;;;;;45.50;22.17;;;14.50;99.90;;;;;;5001856;28;20296;-67
2022/10/19 03:16:07;;;;;;;34.60;21.30;;;14.50;99.90;;;;;;5000516;28;20756;-67
2022/10/19 03:18:33;;;;;;;46.97;24.10;;;14.60;99.90;;;;;;4994682;28;20180;-68
2022/10/19 03:21:05;;;;;;;52.97;23.90;;;14.60;99.90;;;;;;4995378;28;20450;-68
2022/10/19 03:23:30;;;;;;;46.60;23.37;;;14.60;99.90;;;;;;5004386;28;20210;-67
2022/10/19 03:25:56;;;;;;;55.90;25.37;;;14.60;99.90;;;;;;5002051;28;20468;-67
2022/10/19 03:28:21;;;;;;;48.03;21.90;;;14.60;99.90;;;;;;4993828;28;20186;-67
2022/10/19 03:30:46;;;;;;;47.00;24.83;;;14.60;99.90;;;;;;5001088;28;20191;-67
2022/10/19 03:33:12;;;;;;;46.57;22.57;;;14.70;99.90;;;;;;5004316;28;20233;-67
2022/10/19 03:35:37;;;;;;;44.80;23.53;;;14.80;99.90;;;;;;4999163;28;20190;-67
2022/10/19 03:38:03;;;;;;;49.63;23.87;;;14.80;99.90;;;;;;4991304;28;20621;-68
2022/10/19 03:40:28;;;;;;;50.50;24.33;;;14.80;99.90;;;;;;4998956;28;20179;-67
2022/10/19 03:42:54;;;;;;;47.70;24.40;;;14.80;99.90;;;;;;4992678;28;20199;-68
2022/10/19 03:45:19;;;;;;;55.57;25.10;;;14.80;99.90;;;;;;4995773;28;20254;-67
2022/10/19 03:47:51;;;;;;;55.47;25.87;;;14.80;99.90;;;;;;4992389;28;20219;-67
2022/10/19 03:50:17;;;;;;;51.40;25.67;;;14.80;99.90;;;;;;4999804;28;20190;-68
2022/10/19 03:52:43;;;;;;;65.43;27.03;;;14.90;99.90;;;;;;4991485;28;20476;-67
2022/10/19 03:55:10;;;;;;;53.67;24.33;;;14.80;99.90;;;;;;4990260;28;20440;-67
2022/10/19 03:57:36;;;;;;;74.63;25.57;;;14.80;99.90;;;;;;4993742;28;20451;-67
2022/10/19 04:00:03;;;;;;;63.37;25.40;;;14.80;99.90;;;;;;4997206;28;20870;-67
2022/10/19 04:02:29;;;;;;;83.37;26.17;;;14.80;99.90;;;;;;4991513;28;20826;-67
2022/10/19 04:04:54;;;;;;;52.20;24.97;;;14.80;99.90;;;;;;4996285;28;20438;-68
2022/10/19 04:07:20;;;;;;;68.27;24.17;;;14.70;99.90;;;;;;4994488;28;20199;-68
2022/10/19 04:09:45;;;;;;;70.93;22.60;;;14.80;99.90;;;;;;4996065;28;20187;-67
2022/10/19 04:12:11;;;;;;;67.23;25.53;;;14.80;99.90;;;;;;4993219;28;20214;-67
2022/10/19 04:14:37;;;;;;;67.77;25.00;;;14.80;99.90;;;;;;4990658;28;20187;-67
2022/10/19 04:17:03;;;;;;;56.97;24.23;;;14.80;99.90;;;;;;4992185;28;20188;-67
2022/10/19 04:19:29;;;;;;;116.07;27.07;;;14.80;99.90;;;;;;4994425;28;20431;-68
2022/10/19 04:21:55;;;;;;;46.60;22.70;;;14.90;99.90;;;;;;4991555;28;20434;-67
2022/10/19 04:24:21;;;;;;;50.60;23.53;;;14.90;99.90;;;;;;4999920;28;20461;-67
2022/10/19 04:26:52;;;;;;;43.47;22.37;;;14.90;99.90;;;;;;4992371;28;20635;-67
2022/10/19 04:29:20;;;;;;;44.37;26.30;;;15.00;99.90;;;;;;4997935;28;20449;-67
2022/10/19 04:31:48;;;;;;;48.07;24.07;;;14.90;99.90;;;;;;4988620;28;21518;-67
2022/10/19 04:34:14;;;;;;;48.30;24.60;;;14.90;99.90;;;;;;4990767;28;20529;-67
2022/10/19 04:36:39;;;;;;;41.33;24.60;;;15.00;99.90;;;;;;4994543;28;20528;-67
2022/10/19 04:39:05;;;;;;;28.90;21.20;;;15.00;99.90;;;;;;4991567;28;20532;-67
2022/10/19 04:41:32;;;;;;;27.60;20.30;;;15.00;99.90;;;;;;4995881;28;20179;-67
2022/10/19 04:44:00;;;;;;;36.23;24.30;;;15.00;99.90;;;;;;4990716;28;20470;-67
2022/10/19 04:46:27;;;;;;;33.30;23.70;;;14.90;99.90;;;;;;4990986;28;20984;-67
2022/10/19 04:48:54;;;;;;;30.70;23.47;;;15.00;99.90;;;;;;4990641;28;20489;-67
2022/10/19 04:51:21;;;;;;;33.70;24.43;;;14.90;99.90;;;;;;4994565;28;20787;-67
2022/10/19 04:53:47;;;;;;;33.30;22.70;;;14.80;99.90;;;;;;4990743;28;20454;-67
2022/10/19 04:56:20;;;;;;;33.67;22.83;;;14.80;99.90;;;;;;4990886;28;20497;-67
2022/10/19 04:58:46;;;;;;;31.40;22.80;;;14.80;99.90;;;;;;4998746;28;20181;-68
2022/10/19 05:01:18;;;;;;;34.40;26.17;;;14.80;99.90;;;;;;4990229;28;20446;-67
2022/10/19 05:03:44;;;;;;;28.40;23.93;;;14.80;99.90;;;;;;4990911;28;20454;-67
2022/10/19 05:06:11;;;;;;;29.17;24.67;;;14.70;99.90;;;;;;4989856;28;20964;-67
2022/10/19 05:08:37;;;;;;;27.87;23.37;;;14.80;99.90;;;;;;4991421;28;20797;-67
2022/10/19 05:11:05;;;;;;;30.80;23.00;;;14.80;99.90;;;;;;4998029;28;20442;-67
2022/10/19 05:13:32;;;;;;;35.30;23.27;;;14.90;99.90;;;;;;4991355;28;20894;-67
2022/10/19 05:16:01;;;;;;;33.47;25.47;;;15.00;99.90;;;;;;4993996;28;20476;-67
2022/10/19 05:18:27;;;;;;;30.03;24.10;;;15.00;99.90;;;;;;4990406;28;20461;-68
2022/10/19 05:21:07;;;;;;;31.80;24.13;;;15.00;99.90;;;;;;4998884;28;20477;-66
2022/10/19 05:23:33;;;;;;;31.03;25.20;;;15.00;99.90;;;;;;4991090;28;20720;-66
2022/10/19 05:26:19;;;;;;;32.70;24.10;;;15.00;99.90;;;;;;4996630;28;20500;-68
2022/10/19 05:28:50;;;;;;;29.40;21.93;;;15.10;99.90;;;;;;4988984;28;20504;-66
2022/10/19 05:31:18;;;;;;;28.27;23.00;;;15.10;99.90;;;;;;5001710;28;20856;-68
2022/10/19 05:33:44;;;;;;;32.50;22.47;;;15.10;99.90;;;;;;4992024;28;20438;-68
2022/10/19 05:36:21;;;;;;;29.03;23.03;;;15.10;99.90;;;;;;4990701;28;20438;-68
2022/10/19 05:38:49;;;;;;;29.80;23.20;;;15.10;99.90;;;;;;4991556;28;20435;-66
2022/10/19 05:41:16;;;;;;;30.93;22.10;;;15.10;99.90;;;;;;4997856;28;20430;-66
2022/10/19 05:43:42;;;;;;;32.97;21.43;;;15.10;99.90;;;;;;4990303;28;20450;-66
2022/10/19 05:46:13;;;;;;;32.30;24.27;;;15.10;99.90;;;;;;4994089;28;20462;-66
2022/10/19 05:48:40;;;;;;;30.70;23.60;;;15.00;99.90;;;;;;4989182;28;20443;-68
2022/10/19 05:51:07;;;;;;;30.20;24.53;;;15.00;99.90;;;;;;4994292;28;20444;-66
2022/10/19 05:53:33;;;;;;;33.60;24.13;;;14.80;99.90;;;;;;4994907;28;20462;-66
2022/10/19 05:55:59;;;;;;;33.53;23.73;;;14.80;99.90;;;;;;4998862;28;20453;-66
2022/10/19 05:58:25;;;;;;;33.33;24.40;;;14.70;99.90;;;;;;5002334;28;20443;-66
2022/10/19 06:00:55;;;;;;;31.67;24.40;;;14.60;99.90;;;;;;5005062;28;20443;-66
2022/10/19 06:03:22;;;;;;;30.80;22.60;;;14.60;99.90;;;;;;5006644;28;20207;-68
2022/10/19 06:05:48;;;;;;;33.30;24.70;;;14.50;99.90;;;;;;5006032;28;20441;-66
2022/10/19 06:08:15;;;;;;;35.87;24.60;;;14.40;99.90;;;;;;4993709;28;20439;-65
2022/10/19 06:10:42;;;;;;;33.27;24.23;;;14.40;99.90;;;;;;5000038;28;20500;-66
2022/10/19 06:13:08;;;;;;;28.60;23.63;;;14.50;99.90;;;;;;5006503;28;20967;-66
2022/10/19 06:15:35;;;;;;;35.23;23.13;;;14.50;99.90;;;;;;5001288;28;20443;-66
2022/10/19 06:18:03;;;;;;;32.90;24.57;;;14.50;99.90;;;;;;4995388;28;20446;-66
2022/10/19 06:20:29;;;;;;;28.27;22.67;;;14.50;99.90;;;;;;5000915;28;20444;-66
2022/10/19 06:22:54;;;;;;;27.83;22.50;;;14.50;99.90;;;;;;4992557;28;20549;-66
2022/10/19 06:25:20;;;;;;;31.40;22.33;;;14.50;99.90;;;;;;4999277;28;20266;-66
2022/10/19 06:27:46;;;;;;;35.43;28.40;;;14.60;99.90;;;;;;5000307;28;20219;-67
2022/10/19 06:30:12;;;;;;;29.57;23.10;;;14.60;99.90;;;;;;4999610;28;20828;-68
2022/10/19 06:32:37;;;;;;;27.40;21.87;;;14.60;99.90;;;;;;4992490;28;20297;-66
2022/10/19 06:35:03;;;;;;;26.07;22.67;;;14.60;99.90;;;;;;4992408;28;20466;-66
2022/10/19 06:37:29;;;;;;;27.77;22.10;;;14.60;99.90;;;;;;4992344;28;20246;-66
2022/10/19 06:39:54;;;;;;;27.00;21.10;;;14.60;99.90;;;;;;4992710;28;20187;-67
2022/10/19 06:42:20;;;;;;;25.70;19.43;;;14.50;99.90;;;;;;4994033;28;20552;-68
2022/10/19 06:44:45;;;;;;;25.90;18.23;;;14.50;99.90;;;;;;4990625;28;20267;-68
2022/10/19 06:47:11;;;;;;;24.33;19.67;;;14.50;99.90;;;;;;4991347;28;20293;-68
2022/10/19 06:49:37;;;;;;;28.97;22.10;;;14.60;99.90;;;;;;4990583;28;20699;-66
2022/10/19 06:52:04;;;;;;;26.70;22.17;;;14.60;99.90;;;;;;4992561;28;20172;-66
2022/10/19 06:54:30;;;;;;;27.50;22.47;;;14.60;99.90;;;;;;4995430;28;20175;-66
2022/10/19 06:56:56;;;;;;;29.23;23.50;;;14.60;99.90;;;;;;4986691;28;20485;-67
2022/10/19 06:59:21;;;;;;;28.17;20.77;;;14.40;99.90;;;;;;4962230;28;20191;-65
2022/10/19 07:01:47;;;;;;;29.80;23.13;;;14.50;99.90;;;;;;4975844;28;20583;-67
2022/10/19 07:04:12;;;;;;;24.80;20.93;;;14.50;99.90;;;;;;4986886;28;20195;-68
2022/10/19 07:06:38;;;;;;;25.53;20.97;;;14.50;99.90;;;;;;4990316;28;20749;-68
2022/10/19 07:09:03;;;;;;;29.60;21.40;;;14.40;99.90;;;;;;4986425;28;20597;-68
2022/10/19 07:11:29;;;;;;;27.97;20.63;;;14.50;99.90;;;;;;4990171;28;20200;-67
2022/10/19 07:13:54;;;;;;;25.80;21.50;;;14.50;99.90;;;;;;4989834;28;20397;-70
2022/10/19 07:16:20;;;;;;;24.23;19.77;;;14.40;99.90;;;;;;4996622;28;20278;-68
2022/10/19 07:18:47;;;;;;;25.03;20.20;;;14.50;99.90;;;;;;4985604;28;20202;-69
2022/10/19 07:21:14;;;;;;;21.63;18.60;;;14.60;99.90;;;;;;4986106;28;20449;-69
2022/10/19 07:23:42;;;;;;;21.30;18.43;;;14.60;99.90;;;;;;4989887;28;20481;-67
2022/10/19 07:26:13;;;;;;;22.40;18.80;;;14.60;99.90;;;;;;4988854;28;20462;-71
2022/10/19 07:28:41;;;;;;;23.20;17.70;;;14.60;99.90;;;;;;4984624;28;20438;-66
2022/10/19 07:31:09;;;;;;;23.40;17.77;;;14.60;99.90;;;;;;4991215;28;20437;-69
2022/10/19 07:33:35;;;;;;;19.93;17.77;;;14.60;99.90;;;;;;4993642;28;20841;-69
2022/10/19 07:36:06;;;;;;;21.03;17.40;;;14.70;99.90;;;;;;4992423;28;20434;-68
2022/10/19 07:38:32;;;;;;;27.83;21.20;;;14.70;99.90;;;;;;4987650;28;20188;-66
2022/10/19 07:41:11;;;;;;;21.27;18.23;;;14.60;99.90;;;;;;4991961;28;20470;-68
2022/10/19 07:43:38;;;;;;;19.90;16.57;;;14.70;99.90;;;;;;4988940;28;20988;-66
2022/10/19 07:46:06;;;;;;;19.80;17.70;;;14.70;99.90;;;;;;4989921;28;20473;-66
2022/10/19 07:48:32;;;;;;;19.90;17.07;;;14.70;99.90;;;;;;4982943;28;20540;-67
2022/10/19 07:51:00;;;;;;;19.13;16.43;;;14.70;99.90;;;;;;4989350;28;20431;-69
2022/10/19 07:53:25;;;;;;;20.17;17.83;;;14.80;99.90;;;;;;4990577;28;20446;-67
2022/10/19 07:55:51;;;;;;;19.47;17.47;;;14.80;99.90;;;;;;4989699;28;20796;-69
2022/10/19 07:58:16;;;;;;;20.00;16.90;;;14.90;99.90;;;;;;4986720;28;20189;-67
2022/10/19 08:00:42;;;;;;;20.03;17.00;;;14.90;99.90;;;;;;4989514;28;20205;-67
2022/10/19 08:03:08;;;;;;;21.13;16.80;;;15.10;99.90;;;;;;4987067;28;20210;-68
2022/10/19 08:05:34;;;;;;;17.73;14.87;;;15.10;99.90;;;;;;4990972;28;20190;-67
2022/10/19 08:07:59;;;;;;;17.83;16.00;;;15.30;99.90;;;;;;4986739;28;20294;-67
2022/10/19 08:10:25;;;;;;;18.27;15.37;;;15.30;99.90;;;;;;4986251;28;20514;-66
2022/10/19 08:12:50;;;;;;;16.43;14.73;;;15.50;99.90;;;;;;4989887;28;20293;-66
2022/10/19 08:15:16;;;;;;;20.83;18.17;;;15.60;99.90;;;;;;4987507;28;20184;-69
2022/10/19 08:17:41;;;;;;;20.20;15.47;;;15.60;99.90;;;;;;4981254;28;20652;-67
2022/10/19 08:20:07;;;;;;;18.60;15.60;;;15.40;99.90;;;;;;4990230;28;20198;-69
2022/10/19 08:22:33;;;;;;;20.17;15.30;;;15.40;99.90;;;;;;4989736;28;20203;-68
2022/10/19 08:24:59;;;;;;;17.93;16.00;;;15.40;99.90;;;;;;4990847;28;20889;-67
2022/10/19 08:27:24;;;;;;;19.37;14.30;;;15.50;99.90;;;;;;4985358;28;20211;-67
2022/10/19 08:29:50;;;;;;;16.60;14.90;;;15.50;99.90;;;;;;4990621;28;20180;-68
2022/10/19 08:32:17;;;;;;;21.70;15.87;;;15.70;99.90;;;;;;4989836;28;20179;-68
2022/10/19 08:34:42;;;;;;;16.80;14.37;;;15.60;99.90;;;;;;4985430;28;21031;-68
2022/10/19 08:37:08;;;;;;;20.67;17.40;;;15.60;99.90;;;;;;4985889;28;20473;-67
2022/10/19 08:39:34;;;;;;;16.90;15.20;;;15.80;99.90;;;;;;4990461;28;20513;-67
2022/10/19 08:42:18;;;;;;;14.93;13.47;;;15.90;99.90;;;;;;4989839;28;20180;-67
2022/10/19 08:45:00;;;;;;;16.37;14.77;;;16.00;99.90;;;;;;4992472;28;20823;-67
2022/10/19 08:47:47;;;;;;;16.03;14.37;;;16.00;99.90;;;;;;4984955;28;20492;-67
2022/10/19 08:50:25;;;;;;;15.57;13.97;;;15.90;99.90;;;;;;4986046;28;20426;-67
2022/10/19 08:53:02;;;;;;;16.17;14.50;;;15.90;99.90;;;;;;4988243;28;20465;-67
2022/10/19 08:55:47;;;;;;;19.97;14.77;;;16.00;99.90;;;;;;4988166;28;20774;-67
2022/10/19 08:58:13;;;;;;;15.83;14.20;;;16.00;99.90;;;;;;4983012;28;20433;-67
2022/10/19 09:00:52;;;;;;;13.67;12.30;;;16.00;99.90;;;;;;4987470;28;20436;-68
2022/10/19 09:03:24;;;;;;;13.90;12.17;;;16.10;99.90;;;;;;4989202;28;20270;-67
2022/10/19 09:06:19;;;;;;;11.00;9.83;;;16.10;99.90;;;;;;4986611;28;20989;-67
2022/10/19 09:08:45;;;;;;;11.70;10.70;;;16.10;99.90;;;;;;4987299;28;20441;-67
2022/10/19 09:11:11;;;;;;;16.07;14.37;;;16.00;99.90;;;;;;4990551;28;20450;-68
2022/10/19 09:13:46;;;;;;;14.67;11.90;;;16.10;99.90;;;;;;4987081;28;20848;-69
2022/10/19 09:16:16;;;;;;;15.60;11.90;;;16.10;99.90;;;;;;4978863;28;20490;-68
2022/10/19 09:18:43;;;;;;;12.23;11.00;;;16.00;99.90;;;;;;4987718;28;20426;-68
2022/10/19 09:21:17;;;;;;;13.00;11.37;;;16.10;99.90;;;;;;4991511;28;20474;-68
2022/10/19 09:23:45;;;;;;;12.37;11.07;;;16.00;99.90;;;;;;4990036;28;22319;-67
2022/10/19 09:26:18;;;;;;;11.30;10.20;;;15.90;99.90;;;;;;4989082;28;20475;-69
2022/10/19 09:28:50;;;;;;;10.10;9.03;;;15.90;99.90;;;;;;4983482;28;20441;-67
2022/10/19 09:31:25;;;;;;;10.27;9.27;;;16.00;99.90;;;;;;4991753;28;20446;-68
2022/10/19 09:33:55;;;;;;;10.57;9.47;;;16.10;99.90;;;;;;4991354;28;20461;-67
2022/10/19 09:36:22;;;;;;;11.63;10.43;;;16.10;99.90;;;;;;4990166;28;20493;-68
2022/10/19 09:38:48;;;;;;;10.90;9.70;;;16.10;99.90;;;;;;4992895;28;21038;-68
2022/10/19 09:41:21;;;;;;;9.90;8.90;;;16.20;99.90;;;;;;4991327;28;20974;-68
2022/10/19 09:43:52;;;;;;;13.67;9.43;;;16.40;99.90;;;;;;4991630;28;20558;-68
2022/10/19 09:46:36;;;;;;;9.00;8.17;;;16.30;99.90;;;;;;4992764;28;20469;-68
2022/10/19 09:49:03;;;;;;;10.03;9.07;;;16.20;99.90;;;;;;4986406;28;20430;-67
2022/10/19 09:51:50;;;;;;;9.00;8.10;;;16.00;99.90;;;;;;4992758;28;20430;-68
2022/10/19 09:54:24;;;;;;;10.30;9.30;;;16.10;99.90;;;;;;4992266;28;20862;-68
2022/10/19 09:56:54;;;;;;;9.97;8.97;;;16.00;99.90;;;;;;4990479;28;20465;-70
2022/10/19 09:59:22;;;;;;;9.80;8.67;;;15.70;99.90;;;;;;4988342;28;20486;-70
2022/10/19 10:02:18;;;;;;;14.20;10.33;;;15.60;99.90;;;;;;4989860;28;20533;-70
2022/10/19 10:05:14;;;;;;;10.70;9.60;;;15.70;99.90;;;;;;4998764;28;20819;-69
2022/10/19 10:07:40;;;;;;;10.87;9.77;;;15.70;99.90;;;;;;4983688;28;22248;-69
2022/10/19 10:10:38;;;;;;;8.93;8.13;;;15.70;99.90;;;;;;4991638;28;20452;-69
2022/10/19 10:13:04;;;;;;;9.30;8.20;;;15.80;99.90;;;;;;4987049;28;20309;-66
2022/10/19 10:15:41;;;;;;;8.87;8.17;;;15.80;99.90;;;;;;4990786;28;21033;-68
2022/10/19 10:18:14;;;;;;;19.50;13.03;;;15.90;99.90;;;;;;4988049;28;20438;-67
2022/10/19 10:21:10;;;;;;;25.10;18.57;;;15.90;99.90;;;;;;4991533;28;20457;-68
2022/10/19 10:23:36;;;;;;;16.80;12.23;;;15.90;99.90;;;;;;4990529;28;20551;-71
2022/10/19 10:26:04;;;;;;;9.97;8.97;;;15.90;99.90;;;;;;4992419;28;20796;-71
2022/10/19 10:28:30;;;;;;;9.73;8.87;;;15.90;99.90;;;;;;4990491;28;20840;-72
2022/10/19 10:31:06;;;;;;;7.40;6.80;;;15.90;99.90;;;;;;4993753;28;20940;-70
2022/10/19 10:33:35;;;;;;;7.73;7.03;;;16.10;99.90;;;;;;4988026;28;20458;-69
2022/10/19 10:36:05;;;;;;;6.30;5.80;;;16.20;99.90;;;;;;4994176;28;20485;-68
2022/10/19 10:38:35;;;;;;;6.20;5.60;;;16.20;99.90;;;;;;4989877;28;20430;-68
2022/10/19 10:41:11;;;;;;;7.43;5.80;;;16.50;99.90;;;;;;4980259;28;20439;-68
2022/10/19 10:43:49;;;;;;;6.90;6.30;;;16.60;99.90;;;;;;4994548;28;20442;-69
2022/10/19 10:46:19;;;;;;;7.03;6.20;;;16.80;99.90;;;;;;4995821;28;20520;-68
2022/10/19 10:48:54;;;;;;;4.43;4.13;;;16.70;99.90;;;;;;4990176;28;20831;-68
2022/10/19 10:51:27;;;;;;;7.03;6.33;;;16.80;99.90;;;;;;4989150;28;20477;-68
2022/10/19 10:54:16;;;;;;;9.00;8.20;;;16.80;99.90;;;;;;4992469;28;20871;-68
2022/10/19 10:56:43;;;;;;;11.40;9.03;;;16.70;99.90;;;;;;5002214;28;20970;-68
2022/10/19 10:59:20;;;;;;;7.43;6.70;;;16.60;99.90;;;;;;4986626;28;20466;-68
2022/10/19 11:02:16;;;;;;;8.63;6.50;;;16.60;99.90;;;;;;4993524;28;20449;-68
2022/10/19 11:04:50;;;;;;;6.33;5.83;;;16.60;99.90;;;;;;4993360;28;20460;-70
2022/10/19 11:07:22;;;;;;;6.30;5.73;;;16.50;99.90;;;;;;4990385;28;20470;-70
2022/10/19 11:10:02;;;;;;;7.63;6.93;;;16.60;99.90;;;;;;4992409;28;20453;-71
2022/10/19 11:12:48;;;;;;;8.37;7.60;;;16.50;99.90;;;;;;4989806;28;20471;-70
2022/10/19 11:15:31;;;;;;;7.90;7.17;;;16.50;99.90;;;;;;4996624;28;20524;-70
2022/10/19 11:18:09;;;;;;;6.90;6.33;;;16.60;99.90;;;;;;4986340;28;20434;-69
2022/10/19 11:20:42;;;;;;;6.60;6.10;;;16.60;99.90;;;;;;4992789;28;20434;-69
2022/10/19 11:23:18;;;;;;;7.07;6.40;;;16.70;99.90;;;;;;4991474;28;20458;-71
2022/10/19 11:26:02;;;;;;;6.83;6.23;;;16.80;99.90;;;;;;4995101;28;20993;-70
2022/10/19 11:28:52;;;;;;;8.80;8.00;;;16.90;99.90;;;;;;4986536;28;20485;-71
2022/10/19 11:31:34;;;;;;;7.73;6.63;;;16.90;99.90;;;;;;4990149;28;20458;-70
2022/10/19 11:34:09;;;;;;;7.67;6.90;;;17.00;99.90;;;;;;4991605;28;20457;-71
2022/10/19 11:36:58;;;;;;;7.20;6.60;;;17.20;99.90;;;;;;4991896;28;20437;-70
2022/10/19 11:40:03;;;;;;;10.50;9.50;;;17.30;99.90;;;;;;4988501;28;20434;-71
2022/10/19 11:42:53;;;;;;;8.40;7.60;;;17.30;99.90;;;;;;4990164;28;20481;-70
2022/10/19 11:45:41;;;;;;;8.53;7.07;;;17.20;99.90;;;;;;4991842;28;20435;-71
2022/10/19 11:48:39;;;;;;;10.80;7.50;;;17.20;99.90;;;;;;4987100;28;20462;-70
2022/10/19 11:51:20;;;;;;;8.13;7.43;;;17.20;99.90;;;;;;4967612;28;20455;-70
2022/10/19 11:54:10;;;;;;;8.70;7.67;;;17.10;99.90;;;;;;4991285;28;20486;-70
2022/10/19 11:56:48;;;;;;;8.77;6.93;;;17.20;99.90;;;;;;4988569;28;20462;-70
2022/10/19 11:59:13;;;;;;;8.43;7.17;;;17.20;99.90;;;;;;4989837;28;20492;-70
2022/10/19 12:02:15;;;;;;;6.90;6.30;;;17.20;99.90;;;;;;4990103;28;20435;-70
2022/10/19 12:04:49;;;;;;;6.93;6.43;;;17.30;99.90;;;;;;4990855;28;20605;-70
2022/10/19 12:07:35;;;;;;;6.93;6.33;;;17.40;99.90;;;;;;4987911;28;20493;-70
2022/10/19 12:10:10;;;;;;;6.80;6.20;;;17.50;99.90;;;;;;4989651;28;20434;-70
2022/10/19 12:12:43;;;;;;;6.80;6.27;;;17.70;99.90;;;;;;4990794;28;20465;-70
2022/10/19 12:15:40;;;;;;;7.00;6.30;;;17.60;99.90;;;;;;4985360;28;20952;-69
2022/10/19 12:18:29;;;;;;;11.93;8.73;;;17.60;99.90;;;;;;4975466;28;20900;-70
2022/10/19 12:20:58;;;;;;;9.33;8.40;;;17.40;99.90;;;;;;4984494;28;20457;-70
2022/10/19 12:23:34;;;;;;;9.30;7.20;;;17.40;99.90;;;;;;4989636;28;21035;-70
2022/10/19 12:26:07;;;;;;;7.93;7.13;;;17.40;99.90;;;;;;4989457;28;20434;-70
2022/10/19 12:28:35;;;;;;;7.80;7.10;;;17.50;99.90;;;;;;4985130;28;20438;-70
2022/10/19 12:31:03;;;;;;;9.30;8.37;;;17.60;99.90;;;;;;4991496;28;21003;-70
2022/10/19 12:33:46;;;;;;;10.83;9.73;;;17.70;99.90;;;;;;4988345;28;20816;-70
2022/10/19 12:36:21;;;;;;;8.83;7.93;;;17.70;99.90;;;;;;4981928;28;20446;-70
2022/10/19 12:38:55;;;;;;;13.20;9.77;;;17.60;99.90;;;;;;4985796;28;20438;-70
2022/10/19 12:41:58;;;;;;;8.23;7.60;;;17.60;99.90;;;;;;4995353;28;20808;-69
2022/10/19 12:44:42;;;;;;;9.50;8.20;;;17.60;99.90;;;;;;4990272;28;21046;-70
2022/10/19 12:47:12;;;;;;;15.70;10.50;;;17.50;99.90;;;;;;4988466;28;20470;-69
2022/10/19 12:49:49;;;;;;;8.80;8.00;;;17.60;99.90;;;;;;4988586;28;20426;-70